Russelville, Illinois
Current Conditions -  °F | °C
As of 8:23 AM on Friday 24 Oct 2014 (Local Time) from KLWV Reporting Station
Overcast Overcast  
Wind Chill: 12°   Ceiling: 3000
Heat Index: 12°   Visibility: 7mi
Dew Point:   Wind: 6mph
Humidity: 83%   Direction: 170°S
Pressure: 30.13"   Gusts: NA
Location:  38.7501°N, 87.6141°W
Report Text: KLWV 241323Z AUTO 17005KT 7SM OVC030 12/09 A3013 RMK AO2 T01170089
Loading
Personal Weather Stations






























Interactive Weather Map
Tropical Storm Tracking
New forecast layout! Learn more

10-Day Weather Forecast

Advertisements
Track Severe Weather on mobile